createdAt,value
2019-02-28T00:00:10.223Z,87.60
2019-02-28T00:02:39.215Z,89.10
2019-02-28T00:05:08.260Z,90.00
2019-02-28T00:07:37.091Z,90.40
2019-02-28T00:10:07.212Z,90.70
2019-02-28T00:12:36.130Z,91.20
2019-02-28T00:15:05.351Z,91.20
2019-02-28T00:17:34.217Z,91.60
2019-02-28T00:20:03.189Z,91.50
2019-02-28T00:22:31.994Z,91.60
2019-02-28T00:25:01.169Z,91.90
2019-02-28T00:27:31.422Z,91.90
2019-02-28T00:30:00.313Z,91.90
2019-02-28T00:32:29.346Z,92.00
2019-02-28T00:34:58.184Z,92.10
2019-02-28T00:37:26.987Z,92.50
2019-02-28T00:39:56.763Z,92.50
2019-02-28T00:42:25.663Z,92.50
2019-02-28T00:44:54.863Z,92.80
2019-02-28T00:47:24.335Z,92.60
2019-02-28T00:49:55.576Z,92.60
2019-02-28T00:52:23.714Z,92.70
2019-02-28T00:54:52.534Z,90.40
2019-02-28T00:57:23.667Z,88.70
2019-02-28T00:59:52.051Z,86.40
2019-02-28T01:02:21.143Z,86.20
2019-02-28T01:04:50.091Z,86.40
2019-02-28T01:07:19.231Z,86.10
2019-02-28T01:09:48.114Z,86.80
2019-02-28T01:12:19.334Z,87.40
2019-02-28T01:14:47.760Z,87.80
2019-02-28T01:17:16.584Z,89.00
2019-02-28T01:19:45.415Z,90.60
2019-02-28T01:22:14.246Z,91.00
2019-02-28T01:24:43.088Z,92.00
2019-02-28T01:27:11.888Z,92.60
2019-02-28T01:29:41.084Z,92.80
2019-02-28T01:32:10.338Z,93.40
2019-02-28T01:34:39.496Z,94.20
2019-02-28T01:37:08.419Z,94.50
2019-02-28T01:39:37.248Z,94.80
2019-02-28T01:42:06.147Z,95.30
2019-02-28T01:44:35.937Z,94.60
2019-02-28T01:47:05.627Z,94.90
2019-02-28T01:49:34.546Z,95.60
2019-02-28T01:52:03.362Z,96.00
2019-02-28T01:54:32.184Z,95.90
2019-02-28T01:57:01.054Z,96.00
2019-02-28T01:59:29.858Z,96.60
2019-02-28T02:01:59.012Z,96.90
2019-02-28T02:04:27.818Z,96.60
2019-02-28T02:06:59.683Z,96.00
2019-02-28T02:09:27.513Z,96.00
2019-02-28T02:11:57.949Z,95.10
2019-02-28T02:14:27.426Z,95.00
2019-02-28T02:16:58.244Z,95.60
2019-02-28T02:19:27.323Z,96.30
2019-02-28T02:21:56.958Z,97.00
2019-02-28T02:24:27.780Z,95.10
2019-02-28T02:26:56.352Z,93.80
2019-02-28T02:29:25.283Z,93.50
2019-02-28T02:31:54.321Z,93.10
2019-02-28T02:34:24.320Z,92.90
2019-02-28T02:36:54.520Z,93.00
2019-02-28T02:39:23.508Z,93.10
2019-02-28T02:41:52.404Z,94.00
2019-02-28T02:44:21.236Z,94.70
2019-02-28T02:46:55.269Z,95.10
2019-02-28T02:49:20.682Z,95.70
2019-02-28T02:51:50.791Z,96.10
2019-02-28T02:54:20.206Z,96.20
2019-02-28T02:56:49.256Z,96.70
2019-02-28T02:59:18.091Z,97.50
2019-02-28T03:01:46.973Z,97.60
2019-02-28T03:04:21.457Z,97.80
2019-02-28T03:06:46.865Z,98.20
2019-02-28T03:09:15.832Z,98.60
2019-02-28T03:11:44.635Z,99.00
2019-02-28T03:14:16.226Z,99.10
2019-02-28T03:16:44.086Z,99.40
2019-02-28T03:19:12.948Z,99.00
2019-02-28T03:21:41.885Z,99.10
2019-02-28T03:24:14.625Z,98.00
2019-02-28T03:26:43.270Z,96.80
2019-02-28T03:29:12.603Z,95.90
2019-02-28T03:31:41.488Z,96.30
2019-02-28T03:34:13.839Z,96.10
2019-02-28T03:36:40.980Z,96.00
2019-02-28T03:39:09.858Z,96.80
2019-02-28T03:41:38.763Z,97.10
2019-02-28T03:44:07.607Z,97.80
2019-02-28T03:46:36.467Z,98.50
2019-02-28T03:49:11.021Z,98.90
2019-02-28T03:51:36.204Z,99.20
2019-02-28T03:54:05.197Z,99.70
2019-02-28T03:56:34.080Z,99.90
2019-02-28T03:59:03.397Z,99.90
2019-02-28T04:01:32.357Z,99.90
2019-02-28T04:04:01.636Z,99.20
2019-02-28T04:06:30.635Z,99.20
2019-02-28T04:11:31.364Z,99.70
2019-02-28T04:14:00.638Z,99.90
2019-02-28T04:16:29.511Z,99.90
2019-02-28T04:18:58.589Z,99.90
2019-02-28T04:21:27.443Z,99.90
2019-02-28T04:23:57.175Z,99.90
2019-02-28T04:26:29.711Z,99.90
2019-02-28T04:28:56.579Z,99.90
2019-02-28T04:31:25.396Z,99.90
2019-02-28T04:33:54.225Z,99.90
2019-02-28T04:36:23.044Z,99.90
2019-02-28T04:38:52.507Z,99.90
2019-02-28T04:41:21.609Z,99.90
2019-02-28T04:43:50.427Z,99.90
2019-02-28T04:46:19.295Z,99.90
2019-02-28T04:48:48.450Z,99.90
2019-02-28T04:51:18.155Z,99.90
2019-02-28T04:53:47.100Z,99.90
2019-02-28T04:56:16.010Z,99.90
2019-02-28T04:58:44.930Z,99.90
2019-02-28T05:01:14.282Z,99.90
2019-02-28T05:03:43.070Z,99.90
2019-02-28T05:06:12.021Z,99.90
2019-02-28T05:08:40.869Z,99.90
2019-02-28T05:11:09.789Z,99.90
2019-02-28T05:13:38.620Z,99.90
2019-02-28T05:16:09.318Z,99.90
2019-02-28T05:18:38.008Z,99.90
2019-02-28T05:21:06.939Z,99.90
2019-02-28T05:23:36.742Z,99.90
2019-02-28T05:26:05.690Z,99.90
2019-02-28T05:28:40.296Z,99.90
2019-02-28T05:31:05.107Z,99.90
2019-02-28T05:33:33.998Z,99.90
2019-02-28T05:36:04.336Z,99.90
2019-02-28T05:38:33.366Z,99.90
2019-02-28T05:41:02.262Z,99.90
2019-02-28T05:43:32.221Z,99.90
2019-02-28T05:46:01.859Z,99.90
2019-02-28T05:48:30.764Z,99.90
2019-02-28T05:50:59.578Z,99.90
2019-02-28T05:53:28.415Z,99.90
2019-02-28T05:55:59.873Z,99.90
2019-02-28T05:58:28.091Z,99.90
2019-02-28T06:00:57.427Z,99.90
2019-02-28T06:03:29.522Z,99.90
2019-02-28T06:05:57.899Z,99.90
2019-02-28T06:08:26.743Z,99.90
2019-02-28T06:10:59.108Z,99.90
2019-02-28T06:13:26.218Z,99.90
2019-02-28T06:15:55.199Z,99.90
2019-02-28T06:18:27.073Z,99.90
2019-02-28T06:20:54.622Z,99.90
2019-02-28T06:23:23.439Z,99.90
2019-02-28T06:25:52.373Z,99.90
2019-02-28T06:28:21.787Z,99.90
2019-02-28T06:30:51.484Z,99.90
2019-02-28T06:33:21.245Z,99.90
2019-02-28T06:35:53.681Z,99.90
2019-02-28T06:38:20.919Z,99.90
2019-02-28T06:40:51.184Z,99.90
2019-02-28T06:43:20.862Z,99.90
2019-02-28T06:45:49.713Z,99.90
2019-02-28T06:48:20.823Z,99.90
2019-02-28T06:50:49.341Z,99.90
2019-02-28T06:53:18.167Z,99.90
2019-02-28T06:55:47.879Z,99.90
2019-02-28T06:58:17.766Z,99.90
2019-02-28T07:00:47.358Z,99.90
2019-02-28T07:03:17.091Z,99.90
2019-02-28T07:05:45.995Z,99.90
2019-02-28T07:08:14.837Z,99.90
2019-02-28T07:10:44.910Z,99.90
2019-02-28T07:13:14.453Z,99.90
2019-02-28T07:15:43.633Z,99.90
2019-02-28T07:18:14.679Z,99.90
2019-02-28T07:20:43.552Z,99.90
2019-02-28T07:23:12.521Z,99.90
2019-02-28T07:25:41.343Z,99.90
2019-02-28T07:28:10.260Z,99.90
2019-02-28T07:30:40.149Z,99.90
2019-02-28T07:33:10.449Z,99.90
2019-02-28T07:35:39.686Z,99.90
2019-02-28T07:38:08.591Z,99.90
2019-02-28T07:40:37.514Z,99.90
2019-02-28T07:43:12.056Z,99.90
2019-02-28T07:45:37.184Z,99.90
2019-02-28T07:48:06.285Z,99.90
2019-02-28T07:50:35.538Z,99.20
2019-02-28T07:53:05.610Z,98.80
2019-02-28T07:55:35.040Z,98.30
2019-02-28T07:58:04.966Z,98.10
2019-02-28T08:00:33.874Z,98.30
2019-02-28T08:03:11.252Z,98.20
2019-02-28T08:05:41.219Z,97.40
2019-02-28T08:08:10.239Z,96.60
2019-02-28T08:10:39.165Z,96.10
2019-02-28T08:13:09.133Z,96.10
2019-02-28T08:15:38.734Z,95.40
2019-02-28T08:18:07.735Z,95.50
2019-02-28T08:20:36.832Z,94.30
2019-02-28T08:23:06.395Z,93.30
2019-02-28T08:25:35.579Z,92.20
2019-02-28T08:28:04.627Z,92.70
2019-02-28T08:30:33.902Z,92.20
2019-02-28T08:33:02.855Z,91.60
2019-02-28T08:35:34.996Z,91.90
2019-02-28T08:38:03.521Z,91.20
2019-02-28T08:40:32.472Z,91.00
2019-02-28T08:43:01.443Z,90.00
2019-02-28T08:48:04.849Z,86.40
2019-02-28T08:50:34.029Z,86.40
2019-02-28T08:53:04.999Z,85.20
2019-02-28T08:55:38.263Z,85.40
2019-02-28T08:58:06.721Z,81.70
2019-02-28T09:00:37.604Z,79.80
2019-02-28T09:03:06.616Z,77.80
2019-02-28T09:05:35.531Z,73.30
2019-02-28T09:08:04.693Z,73.10
2019-02-28T09:10:34.067Z,73.00
2019-02-28T09:13:07.683Z,71.40
2019-02-28T09:15:34.015Z,70.50
2019-02-28T09:18:02.999Z,69.10
2019-02-28T09:20:32.292Z,69.50
2019-02-28T09:23:02.379Z,67.20
2019-02-28T09:25:32.024Z,64.70
2019-02-28T09:28:01.216Z,64.60
2019-02-28T09:30:33.080Z,63.00
2019-02-28T09:33:02.261Z,62.90
2019-02-28T09:35:31.248Z,61.20
2019-02-28T09:38:03.250Z,58.60
2019-02-28T09:40:31.148Z,55.90
2019-02-28T09:43:00.427Z,56.00
2019-02-28T09:45:29.508Z,54.10
2019-02-28T09:48:02.026Z,54.20
2019-02-28T09:50:30.228Z,52.20
2019-02-28T09:52:59.228Z,50.50
2019-02-28T09:55:28.239Z,51.20
2019-02-28T09:57:58.150Z,51.80
2019-02-28T10:00:27.815Z,50.60
2019-02-28T10:02:56.973Z,51.30
2019-02-28T10:05:25.896Z,50.10
2019-02-28T10:07:54.913Z,49.30
2019-02-28T10:10:23.764Z,49.10
2019-02-28T10:12:52.743Z,49.30
2019-02-28T10:15:21.719Z,49.70
2019-02-28T10:17:50.831Z,49.70
2019-02-28T10:20:26.452Z,50.00
2019-02-28T10:22:52.535Z,50.40
2019-02-28T10:25:21.554Z,51.50
2019-02-28T10:27:51.530Z,50.90
2019-02-28T10:30:31.196Z,52.00
2019-02-28T10:32:52.579Z,48.60
2019-02-28T10:35:21.959Z,47.20
2019-02-28T10:37:50.947Z,46.50
2019-02-28T10:40:21.768Z,47.80
2019-02-28T10:42:50.859Z,48.10
2019-02-28T10:45:20.303Z,48.60
2019-02-28T10:47:49.191Z,47.10
2019-02-28T10:50:20.056Z,45.90
2019-02-28T10:52:48.958Z,45.50
2019-02-28T10:55:19.415Z,45.40
2019-02-28T10:57:49.165Z,44.50
2019-02-28T11:00:29.389Z,44.80
2019-02-28T11:02:58.087Z,44.90
2019-02-28T11:05:29.578Z,44.10
2019-02-28T11:08:02.229Z,43.10
2019-02-28T11:10:37.039Z,41.80
2019-02-28T11:13:09.056Z,44.20
2019-02-28T11:15:37.901Z,44.00
2019-02-28T11:18:09.604Z,43.30
2019-02-28T11:20:38.651Z,43.00
2019-02-28T11:23:07.939Z,44.00
2019-02-28T11:25:37.088Z,44.60
2019-02-28T11:28:06.483Z,45.30
2019-02-28T11:30:36.187Z,45.30
2019-02-28T11:33:05.820Z,45.90
2019-02-28T11:35:35.006Z,44.20
2019-02-28T11:38:05.088Z,45.30
2019-02-28T11:40:34.671Z,44.90
2019-02-28T11:43:04.728Z,44.10
2019-02-28T11:45:34.607Z,43.50
2019-02-28T11:48:04.541Z,42.20
2019-02-28T11:50:33.543Z,42.80
2019-02-28T11:53:05.727Z,43.00
2019-02-28T11:55:33.160Z,42.10
2019-02-28T11:58:02.345Z,41.60
2019-02-28T12:00:32.510Z,43.60
2019-02-28T12:03:02.703Z,43.20
2019-02-28T12:05:31.642Z,44.40
2019-02-28T12:08:00.576Z,44.40
2019-02-28T12:10:29.783Z,44.20
2019-02-28T12:12:58.766Z,43.60
2019-02-28T12:15:28.429Z,43.00
2019-02-28T12:18:03.502Z,43.00
2019-02-28T12:20:29.592Z,42.70
2019-02-28T12:22:58.414Z,42.60
2019-02-28T12:25:27.576Z,43.60
2019-02-28T12:27:59.301Z,43.70
2019-02-28T12:30:29.151Z,42.90
2019-02-28T12:32:58.031Z,43.70
2019-02-28T12:35:26.952Z,44.50
2019-02-28T12:37:56.344Z,44.60
2019-02-28T12:40:27.109Z,46.60
2019-02-28T12:42:56.008Z,48.70
2019-02-28T12:45:27.911Z,48.90
2019-02-28T12:47:56.902Z,49.70
2019-02-28T12:50:29.426Z,54.60
2019-02-28T12:52:57.022Z,56.30
2019-02-28T12:55:25.876Z,59.80
2019-02-28T12:57:57.773Z,63.20
2019-02-28T13:00:28.298Z,68.10
2019-02-28T13:02:57.207Z,70.70
2019-02-28T13:05:26.209Z,73.00
2019-02-28T13:07:55.204Z,74.70
2019-02-28T13:10:27.983Z,77.80
2019-02-28T13:13:05.585Z,81.60
2019-02-28T13:15:26.736Z,86.40
2019-02-28T13:17:55.640Z,87.30
2019-02-28T13:20:32.199Z,90.10
2019-02-28T13:22:59.463Z,91.40
2019-02-28T13:25:27.058Z,92.30
2019-02-28T13:27:56.236Z,93.00
2019-02-28T13:30:25.249Z,93.50
2019-02-28T13:32:54.253Z,92.90
2019-02-28T13:35:25.894Z,93.90
2019-02-28T13:37:54.924Z,94.70
2019-02-28T13:40:24.083Z,94.50
2019-02-28T13:42:52.976Z,94.40
2019-02-28T13:45:23.764Z,95.50
2019-02-28T13:47:52.772Z,96.20
2019-02-28T13:50:25.624Z,95.60
2019-02-28T13:52:54.024Z,94.30
2019-02-28T13:55:23.062Z,94.80
2019-02-28T13:57:51.968Z,94.70
2019-02-28T14:00:25.856Z,93.80
2019-02-28T14:02:59.622Z,94.20
2019-02-28T14:05:29.106Z,93.80
2019-02-28T14:07:58.472Z,93.80
2019-02-28T14:10:29.636Z,94.10
2019-02-28T14:12:58.463Z,93.50
2019-02-28T14:15:33.233Z,93.80
2019-02-28T14:18:02.153Z,94.00
2019-02-28T14:20:31.153Z,93.80
2019-02-28T14:23:00.027Z,93.70
2019-02-28T14:25:29.311Z,92.60
2019-02-28T14:28:00.262Z,91.60
2019-02-28T14:30:30.064Z,91.70
2019-02-28T14:32:58.992Z,91.90
2019-02-28T14:35:28.276Z,91.10
2019-02-28T14:37:57.248Z,90.40
2019-02-28T14:40:26.251Z,90.50
2019-02-28T14:42:55.445Z,90.40
2019-02-28T14:45:24.664Z,89.90
2019-02-28T14:47:56.866Z,89.70
2019-02-28T14:50:24.267Z,89.40
2019-02-28T14:52:54.154Z,87.00
2019-02-28T14:55:24.531Z,86.60
2019-02-28T14:57:55.229Z,85.50
2019-02-28T15:00:28.354Z,84.20
2019-02-28T15:02:59.503Z,81.50
2019-02-28T15:05:28.475Z,79.00
2019-02-28T15:07:58.411Z,77.10
2019-02-28T15:10:27.851Z,76.40
2019-02-28T15:12:58.715Z,76.50
2019-02-28T15:15:28.076Z,77.60
2019-02-28T15:17:57.395Z,77.40
2019-02-28T15:20:31.761Z,76.50
2019-02-28T15:22:59.428Z,77.80
2019-02-28T15:25:27.859Z,77.90
2019-02-28T15:27:57.395Z,77.00
2019-02-28T15:30:30.583Z,77.20
2019-02-28T15:32:59.300Z,77.00
2019-02-28T15:35:28.440Z,77.30
2019-02-28T15:37:57.534Z,78.50
2019-02-28T15:40:28.810Z,77.90
2019-02-28T15:42:57.695Z,77.20
2019-02-28T15:45:27.076Z,79.10
2019-02-28T15:47:59.133Z,80.70
2019-02-28T15:50:27.633Z,79.20
2019-02-28T15:52:56.807Z,78.40
2019-02-28T15:55:26.192Z,78.10
2019-02-28T15:57:55.409Z,78.70
2019-02-28T16:00:34.315Z,79.20
2019-02-28T16:03:03.532Z,77.80
2019-02-28T16:05:32.730Z,79.30
2019-02-28T16:08:01.673Z,79.20
2019-02-28T16:10:32.142Z,77.30
2019-02-28T16:13:02.111Z,78.40
2019-02-28T16:15:31.288Z,78.70
2019-02-28T16:18:00.475Z,78.80
2019-02-28T16:20:31.919Z,79.00
2019-02-28T16:23:00.031Z,79.10
2019-02-28T16:25:31.349Z,79.40
2019-02-28T16:28:00.352Z,80.60
2019-02-28T16:30:32.111Z,81.70
2019-02-28T16:33:01.317Z,83.00
2019-02-28T16:35:30.576Z,83.10
2019-02-28T16:37:59.386Z,84.50
2019-02-28T16:40:28.474Z,84.70
2019-02-28T16:42:57.557Z,86.30
2019-02-28T16:45:37.604Z,87.40
2019-02-28T16:48:07.844Z,88.50
2019-02-28T16:50:36.959Z,89.30
2019-02-28T16:53:06.367Z,90.20
2019-02-28T16:55:35.731Z,90.30
2019-02-28T16:58:05.035Z,90.50
2019-02-28T17:00:34.353Z,90.70
2019-02-28T17:03:03.955Z,90.90
2019-02-28T17:05:34.229Z,91.00
2019-02-28T17:08:06.874Z,91.40
2019-02-28T17:10:40.118Z,91.40
2019-02-28T17:13:22.791Z,92.00
2019-02-28T17:16:09.582Z,92.30
2019-02-28T17:18:39.275Z,92.40
2019-02-28T17:21:08.291Z,92.30
2019-02-28T17:23:38.139Z,92.20
2019-02-28T17:26:07.538Z,92.10
2019-02-28T17:28:41.187Z,92.10
2019-02-28T17:31:36.180Z,92.10
2019-02-28T17:34:05.383Z,92.30
2019-02-28T17:36:34.483Z,92.50
2019-02-28T17:39:04.319Z,92.60
2019-02-28T17:41:37.126Z,93.00
2019-02-28T17:44:33.919Z,93.20
2019-02-28T17:47:05.784Z,93.20
2019-02-28T17:50:05.511Z,93.00
2019-02-28T17:52:45.448Z,92.00
2019-02-28T17:55:36.003Z,91.70
2019-02-28T17:58:13.527Z,91.90
2019-02-28T18:01:15.421Z,91.30
2019-02-28T18:04:37.192Z,91.60
2019-02-28T18:07:35.302Z,91.80
2019-02-28T18:10:50.428Z,91.60
2019-02-28T18:13:52.251Z,91.40
2019-02-28T18:17:01.294Z,91.70
2019-02-28T18:20:19.319Z,91.80
2019-02-28T18:23:24.892Z,91.40
2019-02-28T18:26:38.530Z,91.60
2019-02-28T18:31:48.366Z,91.10
2019-02-28T18:34:21.437Z,91.40
2019-02-28T18:36:50.700Z,91.00
2019-02-28T18:39:19.732Z,90.40
2019-02-28T18:41:50.721Z,90.60
2019-02-28T18:44:19.992Z,90.40
2019-02-28T18:46:49.150Z,90.30
2019-02-28T18:49:18.727Z,89.90
2019-02-28T18:51:49.917Z,90.10
2019-02-28T18:54:19.144Z,90.00
2019-02-28T18:56:48.127Z,90.20
2019-02-28T18:59:17.465Z,91.50
2019-02-28T19:01:48.898Z,91.80
2019-02-28T19:04:18.162Z,92.60
2019-02-28T19:06:47.177Z,93.70
2019-02-28T19:09:23.587Z,94.80
2019-02-28T19:11:52.739Z,95.00
2019-02-28T19:14:21.554Z,95.20
2019-02-28T19:16:50.406Z,96.00
2019-02-28T19:19:19.718Z,99.90
2019-02-28T19:21:48.821Z,99.90
2019-02-28T19:24:17.715Z,99.90
2019-02-28T19:26:46.705Z,99.90
2019-02-28T19:29:15.675Z,99.90
2019-02-28T19:31:44.554Z,99.90
2019-02-28T19:34:13.578Z,99.90
2019-02-28T19:36:42.403Z,99.90
2019-02-28T19:39:11.368Z,99.90
2019-02-28T19:41:40.195Z,99.90
2019-02-28T19:44:09.756Z,99.90
2019-02-28T19:46:39.006Z,99.90
2019-02-28T19:49:08.062Z,99.90
2019-02-28T19:51:36.885Z,99.90
2019-02-28T19:54:06.144Z,99.90
2019-02-28T19:56:35.235Z,99.90
2019-02-28T19:59:04.248Z,99.90
2019-02-28T20:01:33.316Z,99.90
2019-02-28T20:04:02.274Z,99.90
2019-02-28T20:06:31.193Z,99.90
2019-02-28T20:09:00.417Z,99.90
2019-02-28T20:11:29.403Z,99.90
2019-02-28T20:13:59.826Z,99.90
2019-02-28T20:16:29.496Z,99.90
2019-02-28T20:18:58.594Z,99.90
2019-02-28T20:21:27.711Z,99.90
2019-02-28T20:23:56.680Z,99.90
2019-02-28T20:26:25.720Z,99.90
2019-02-28T20:28:54.644Z,99.90
2019-02-28T20:31:23.609Z,99.90
2019-02-28T20:33:52.796Z,99.90
2019-02-28T20:36:21.875Z,99.90
2019-02-28T20:38:50.807Z,99.90
2019-02-28T20:41:19.770Z,99.90
2019-02-28T20:43:48.783Z,99.90
2019-02-28T20:46:17.708Z,99.90
2019-02-28T20:48:46.648Z,99.90
2019-02-28T20:51:15.535Z,99.90
2019-02-28T20:53:44.879Z,99.90
2019-02-28T20:56:13.834Z,99.90
2019-02-28T20:58:42.687Z,99.90
2019-02-28T21:01:11.927Z,99.90
2019-02-28T21:03:41.028Z,99.90
2019-02-28T21:06:10.070Z,99.90
2019-02-28T21:08:39.056Z,99.90
2019-02-28T21:11:08.211Z,99.90
2019-02-28T21:13:37.155Z,99.90
2019-02-28T21:16:06.298Z,99.90
2019-02-28T21:18:35.120Z,99.90
2019-02-28T21:21:04.689Z,99.90
2019-02-28T21:23:33.548Z,99.90
2019-02-28T21:26:02.467Z,99.90
2019-02-28T21:28:31.472Z,99.90
2019-02-28T21:31:00.283Z,99.90
2019-02-28T21:33:29.186Z,99.90
2019-02-28T21:35:58.095Z,99.90
2019-02-28T21:38:27.072Z,99.90
2019-02-28T21:40:55.931Z,99.90
2019-02-28T21:43:24.764Z,99.90
2019-02-28T21:45:53.747Z,99.90
2019-02-28T21:48:22.580Z,99.90
2019-02-28T21:50:51.474Z,99.90
2019-02-28T21:53:20.388Z,99.90
2019-02-28T21:55:49.197Z,99.90
2019-02-28T21:58:18.055Z,99.90
2019-02-28T22:00:46.870Z,99.90
2019-02-28T22:03:15.679Z,99.90
2019-02-28T22:05:44.588Z,99.90
2019-02-28T22:08:13.743Z,99.90
2019-02-28T22:10:42.628Z,99.90
2019-02-28T22:13:11.448Z,99.90
2019-02-28T22:15:40.392Z,99.90
2019-02-28T22:18:09.338Z,99.90
2019-02-28T22:20:38.350Z,99.90
2019-02-28T22:23:07.183Z,99.90
2019-02-28T22:25:36.012Z,99.90
2019-02-28T22:28:04.924Z,99.90
2019-02-28T22:31:01.907Z,99.90
2019-02-28T22:33:37.675Z,99.90
2019-02-28T22:36:08.301Z,99.90
2019-02-28T22:38:37.224Z,99.90
2019-02-28T22:41:06.175Z,99.90
2019-02-28T22:43:35.020Z,99.90
2019-02-28T22:46:03.894Z,99.90
2019-02-28T22:48:32.708Z,99.90
2019-02-28T22:51:01.879Z,99.90
2019-02-28T22:53:30.755Z,99.90
2019-02-28T22:56:00.482Z,99.90
2019-02-28T22:58:29.335Z,99.90
2019-02-28T23:01:05.527Z,99.90
2019-02-28T23:03:35.291Z,99.90
2019-02-28T23:06:04.456Z,99.90
2019-02-28T23:08:33.654Z,99.90
2019-02-28T23:11:02.643Z,99.90
2019-02-28T23:13:31.593Z,99.90
2019-02-28T23:16:00.978Z,99.90
2019-02-28T23:18:29.823Z,99.90
2019-02-28T23:20:58.742Z,99.90
2019-02-28T23:23:27.723Z,99.90
2019-02-28T23:26:07.409Z,99.90
2019-02-28T23:28:41.763Z,99.90
2019-02-28T23:32:10.144Z,99.90
2019-02-28T23:34:44.835Z,99.90
2019-02-28T23:37:14.023Z,99.90
2019-02-28T23:39:42.903Z,99.90
2019-02-28T23:42:11.785Z,99.90
2019-02-28T23:44:40.683Z,99.90
2019-02-28T23:47:09.500Z,99.90
2019-02-28T23:49:38.411Z,99.90
2019-02-28T23:52:07.315Z,99.90
2019-02-28T23:54:36.152Z,99.90
2019-02-28T23:57:05.115Z,99.90
2019-02-28T23:59:34.233Z,99.90
